Time;durP1;ratioP1;P1;durP2;ratioP2;P2;SDS_P1;SDS_P2;PMS_P1;PMS_P2;Temp;Humidity;BMP_temperature;BMP_pressure;BME280_temperature;BME280_humidity;BME280_pressure;Samples;Min_cycle;Max_cycle;Signal;HPM_P1;HPM_P2
2023/12/10 00:00:28;;;;;;;17.27;9.27;;;0.10;99.90;;;;;;4243121;27;20742;-60
2023/12/10 00:02:30;;;;;;;15.40;9.20;;;0.10;99.90;;;;;;4243075;27;20264;-60
2023/12/10 00:04:31;;;;;;;16.57;9.37;;;0.20;99.90;;;;;;4241720;27;20330;-58
2023/12/10 00:06:32;;;;;;;18.73;9.90;;;0.20;99.90;;;;;;4242972;27;20317;-60
2023/12/10 00:08:33;;;;;;;16.60;9.37;;;0.20;99.90;;;;;;4243652;27;20272;-60
2023/12/10 00:10:34;;;;;;;16.50;8.47;;;0.20;99.90;;;;;;4243396;27;20287;-56
2023/12/10 00:12:36;;;;;;;16.10;8.57;;;0.20;99.90;;;;;;4242988;27;20267;-60
2023/12/10 00:14:37;;;;;;;18.33;8.77;;;0.20;99.90;;;;;;4242744;27;20271;-60
2023/12/10 00:16:38;;;;;;;16.70;9.10;;;0.30;99.90;;;;;;4243138;27;20259;-60
2023/12/10 00:18:39;;;;;;;16.50;9.73;;;0.20;99.90;;;;;;4242848;27;20320;-59
2023/12/10 00:20:40;;;;;;;15.57;9.17;;;0.20;99.90;;;;;;4243189;27;20804;-60
2023/12/10 00:22:42;;;;;;;17.30;9.50;;;0.10;99.90;;;;;;4243327;27;20309;-60
2023/12/10 00:24:43;;;;;;;17.90;10.17;;;0.20;99.90;;;;;;4242240;27;20320;-59
2023/12/10 00:26:45;;;;;;;15.57;9.27;;;0.20;99.90;;;;;;4243397;27;20320;-59
2023/12/10 00:28:46;;;;;;;15.50;9.07;;;0.20;99.90;;;;;;4242577;27;20264;-60
2023/12/10 00:30:47;;;;;;;17.07;9.90;;;0.10;99.90;;;;;;4243382;27;20803;-60
2023/12/10 00:32:49;;;;;;;15.93;9.17;;;0.20;99.90;;;;;;4242009;27;20300;-58
2023/12/10 00:34:50;;;;;;;18.17;10.40;;;0.10;99.90;;;;;;4242370;27;20279;-59
2023/12/10 00:36:51;;;;;;;17.10;10.20;;;0.20;99.90;;;;;;4242142;27;20597;-59
2023/12/10 00:38:55;;;;;;;17.93;10.50;;;0.10;99.90;;;;;;4242307;27;20300;-59
2023/12/10 00:40:57;;;;;;;17.60;9.87;;;0.10;99.90;;;;;;4242735;27;20751;-59
2023/12/10 00:42:58;;;;;;;16.80;9.87;;;0.10;99.90;;;;;;4242171;27;20348;-57
2023/12/10 00:44:59;;;;;;;15.73;9.27;;;0.10;99.90;;;;;;4243140;27;20256;-58
2023/12/10 00:47:00;;;;;;;15.57;8.67;;;0.10;99.90;;;;;;4243106;27;20259;-59
2023/12/10 00:49:01;;;;;;;16.23;8.87;;;0.10;99.90;;;;;;4242867;27;20743;-59
2023/12/10 00:51:03;;;;;;;17.83;8.93;;;0.10;99.90;;;;;;4242688;27;20697;-60
2023/12/10 00:53:04;;;;;;;15.83;8.70;;;0.10;99.90;;;;;;4242063;27;20669;-59
2023/12/10 00:55:05;;;;;;;16.37;8.90;;;0.00;99.90;;;;;;4242793;27;20324;-58
2023/12/10 00:57:07;;;;;;;17.60;9.53;;;0.00;99.90;;;;;;4242202;28;21201;-60
2023/12/10 00:59:08;;;;;;;13.53;8.30;;;0.00;99.90;;;;;;4242456;28;20267;-60
2023/12/10 01:01:10;;;;;;;18.27;9.70;;;0.00;99.90;;;;;;4243037;28;20332;-58
2023/12/10 01:03:11;;;;;;;15.60;8.77;;;0.00;99.90;;;;;;4242747;28;20665;-59
2023/12/10 01:05:12;;;;;;;18.73;9.77;;;0.00;99.90;;;;;;4241844;28;20263;-56
2023/12/10 01:07:14;;;;;;;14.07;8.67;;;0.00;99.90;;;;;;4243498;27;20646;-56
2023/12/10 01:09:15;;;;;;;14.93;8.63;;;0.00;99.90;;;;;;4245416;27;20267;-59
2023/12/10 01:11:16;;;;;;;14.00;8.30;;;0.00;99.90;;;;;;4246350;27;20324;-58
2023/12/10 01:13:17;;;;;;;17.77;10.43;;;0.00;99.90;;;;;;4245975;27;20332;-60
2023/12/10 01:15:29;;;;;;;14.33;8.03;;;0.00;99.90;;;;;;4245552;27;20264;-59
2023/12/10 01:17:31;;;;;;;16.20;9.40;;;0.00;99.90;;;;;;4229629;28;20276;-60
2023/12/10 01:19:32;;;;;;;13.37;7.63;;;0.00;99.90;;;;;;4229407;28;20260;-59
2023/12/10 01:21:33;;;;;;;14.90;8.33;;;0.00;99.90;;;;;;4240182;27;20400;-60
2023/12/10 01:23:34;;;;;;;14.43;8.40;;;-0.10;99.90;;;;;;4246348;27;20263;-59
2023/12/10 01:25:35;;;;;;;14.50;8.23;;;0.00;99.90;;;;;;4245284;27;20796;-55
2023/12/10 01:27:36;;;;;;;13.97;8.03;;;0.00;99.90;;;;;;4227024;28;20276;-60
2023/12/10 01:29:38;;;;;;;17.57;9.17;;;0.00;99.90;;;;;;4245649;27;20292;-60
2023/12/10 01:31:39;;;;;;;13.87;7.87;;;0.00;99.90;;;;;;4246230;27;22205;-60
2023/12/10 01:33:41;;;;;;;14.33;7.77;;;0.00;99.90;;;;;;4244550;27;20283;-59
2023/12/10 01:35:42;;;;;;;12.73;7.67;;;0.00;99.90;;;;;;4245729;27;20751;-58
2023/12/10 01:37:43;;;;;;;15.30;8.23;;;0.00;99.90;;;;;;4245104;27;20297;-59
2023/12/10 01:39:44;;;;;;;14.90;8.03;;;0.00;99.90;;;;;;4246130;27;20259;-58
2023/12/10 01:41:45;;;;;;;12.23;7.03;;;0.00;99.90;;;;;;4243897;27;20264;-59
2023/12/10 01:43:47;;;;;;;14.13;7.63;;;0.00;99.90;;;;;;4244963;27;20279;-59
2023/12/10 01:45:50;;;;;;;15.07;8.20;;;-0.10;99.90;;;;;;4245713;27;20332;-59
2023/12/10 01:47:52;;;;;;;13.37;8.00;;;0.00;99.90;;;;;;4244618;27;20320;-57
2023/12/10 01:49:54;;;;;;;15.00;8.37;;;0.00;99.90;;;;;;4246012;27;20255;-59
2023/12/10 01:51:56;;;;;;;16.63;8.77;;;0.00;99.90;;;;;;4244843;27;20563;-58
2023/12/10 01:53:57;;;;;;;12.10;7.37;;;0.00;99.90;;;;;;4244874;27;20324;-59
2023/12/10 01:55:58;;;;;;;13.30;7.47;;;0.00;99.90;;;;;;4244213;27;20283;-57
2023/12/10 01:58:00;;;;;;;15.73;8.60;;;0.00;99.90;;;;;;4245053;27;20327;-59
2023/12/10 02:00:06;;;;;;;13.93;8.20;;;0.10;99.90;;;;;;4244437;27;20293;-59
2023/12/10 02:02:07;;;;;;;12.40;7.40;;;0.10;99.90;;;;;;4244133;27;20415;-59
2023/12/10 02:04:10;;;;;;;14.00;8.40;;;0.10;99.90;;;;;;4243205;27;20252;-58
2023/12/10 02:06:11;;;;;;;14.20;8.20;;;0.10;99.90;;;;;;4244506;27;20260;-59
2023/12/10 02:08:13;;;;;;;14.03;7.83;;;0.10;99.90;;;;;;4243876;27;20320;-59
2023/12/10 02:10:14;;;;;;;12.50;7.83;;;0.10;99.90;;;;;;4245693;27;20279;-59
2023/12/10 02:12:19;;;;;;;12.90;7.00;;;0.10;99.90;;;;;;4244598;27;20367;-59
2023/12/10 02:14:20;;;;;;;13.80;7.77;;;0.10;99.90;;;;;;4244974;27;20672;-59
2023/12/10 02:16:21;;;;;;;14.23;7.40;;;0.10;99.90;;;;;;4245213;27;20271;-59
2023/12/10 02:18:22;;;;;;;12.93;8.00;;;0.00;99.90;;;;;;4243547;27;20275;-59
2023/12/10 02:20:23;;;;;;;12.90;7.53;;;0.10;99.90;;;;;;4244256;27;20767;-58
2023/12/10 02:22:24;;;;;;;13.13;7.20;;;0.10;99.90;;;;;;4245230;27;20666;-59
2023/12/10 02:24:32;;;;;;;13.93;7.77;;;0.10;99.90;;;;;;4243857;27;20344;-59
2023/12/10 02:26:34;;;;;;;11.57;7.07;;;0.10;99.90;;;;;;4243834;27;20279;-58
2023/12/10 02:28:35;;;;;;;13.60;7.33;;;0.10;99.90;;;;;;4244353;27;20308;-59
2023/12/10 02:30:37;;;;;;;13.37;7.50;;;0.10;99.90;;;;;;4244305;27;20332;-58
2023/12/10 02:32:38;;;;;;;14.47;7.70;;;0.10;99.90;;;;;;4244397;27;20613;-59
2023/12/10 02:34:39;;;;;;;11.67;7.23;;;0.10;99.90;;;;;;4243241;27;20267;-59
2023/12/10 02:36:40;;;;;;;12.10;7.47;;;0.10;99.90;;;;;;4245304;27;20934;-58
2023/12/10 02:38:43;;;;;;;11.63;7.47;;;0.10;99.90;;;;;;4244482;27;20268;-59
2023/12/10 02:40:44;;;;;;;12.70;8.30;;;0.10;99.90;;;;;;4245135;27;20263;-59
2023/12/10 02:42:47;;;;;;;13.60;6.93;;;0.00;99.90;;;;;;4243661;27;20308;-59
2023/12/10 02:44:48;;;;;;;11.10;6.90;;;0.10;99.90;;;;;;4244915;27;20693;-59
2023/12/10 02:46:49;;;;;;;13.00;7.30;;;0.10;99.90;;;;;;4244830;27;20341;-59
2023/12/10 02:48:51;;;;;;;11.80;6.70;;;0.10;99.90;;;;;;4243850;27;20309;-59
2023/12/10 02:50:52;;;;;;;13.37;7.53;;;0.10;99.90;;;;;;4244477;27;20843;-59
2023/12/10 02:52:53;;;;;;;12.10;7.17;;;0.10;99.90;;;;;;4227821;28;20263;-59
2023/12/10 02:54:54;;;;;;;12.60;6.47;;;0.10;99.90;;;;;;4227910;28;20329;-58
2023/12/10 02:56:55;;;;;;;11.53;6.13;;;0.10;99.90;;;;;;4227623;28;20670;-59
2023/12/10 02:58:56;;;;;;;12.30;6.90;;;0.10;99.90;;;;;;4227755;28;20325;-59
2023/12/10 03:00:58;;;;;;;13.07;7.10;;;0.10;99.90;;;;;;4227395;28;21217;-57
2023/12/10 03:02:59;;;;;;;13.63;7.77;;;0.10;99.90;;;;;;4227863;28;20317;-60
2023/12/10 03:05:00;;;;;;;14.63;7.60;;;0.10;99.90;;;;;;4227445;28;20268;-58
2023/12/10 03:07:01;;;;;;;12.43;7.20;;;0.10;99.90;;;;;;4231521;27;20796;-58
2023/12/10 03:09:02;;;;;;;11.87;6.83;;;0.20;99.90;;;;;;4243573;27;20289;-58
2023/12/10 03:11:05;;;;;;;11.87;7.10;;;0.10;99.90;;;;;;4244474;27;20307;-59
2023/12/10 03:13:07;;;;;;;10.93;6.87;;;0.10;99.90;;;;;;4243510;27;20264;-59
2023/12/10 03:15:08;;;;;;;14.33;7.07;;;0.20;99.90;;;;;;4243586;27;20661;-59
2023/12/10 03:17:09;;;;;;;11.73;6.07;;;0.20;99.90;;;;;;4244049;27;20374;-59
2023/12/10 03:19:11;;;;;;;14.07;7.57;;;0.20;99.90;;;;;;4243880;27;20263;-59
2023/12/10 03:21:12;;;;;;;13.30;7.90;;;0.20;99.90;;;;;;4243974;27;20264;-59
2023/12/10 03:23:13;;;;;;;10.70;6.63;;;0.20;99.90;;;;;;4243683;27;20294;-60
2023/12/10 03:25:14;;;;;;;12.77;6.87;;;0.20;99.90;;;;;;4243319;27;20689;-59
2023/12/10 03:27:15;;;;;;;13.77;8.00;;;0.20;99.90;;;;;;4244017;27;20731;-60
2023/12/10 03:29:17;;;;;;;13.47;7.87;;;0.20;99.90;;;;;;4243309;27;20352;-59
2023/12/10 03:31:18;;;;;;;13.77;7.47;;;0.20;99.90;;;;;;4242524;27;20642;-60
2023/12/10 03:33:19;;;;;;;13.60;6.93;;;0.20;99.90;;;;;;4244182;27;20316;-58
2023/12/10 03:35:20;;;;;;;15.00;7.47;;;0.20;99.90;;;;;;4243725;27;20267;-59
2023/12/10 03:37:22;;;;;;;11.90;6.87;;;0.20;99.90;;;;;;4243980;27;21041;-60
2023/12/10 03:39:23;;;;;;;12.87;7.13;;;0.20;99.90;;;;;;4242568;27;20275;-59
2023/12/10 03:41:24;;;;;;;12.17;7.03;;;0.20;99.90;;;;;;4243624;27;20292;-59
2023/12/10 03:43:25;;;;;;;13.33;7.13;;;0.20;99.90;;;;;;4243021;27;20320;-59
2023/12/10 03:45:26;;;;;;;13.37;7.17;;;0.30;99.90;;;;;;4243305;27;20673;-60
2023/12/10 03:47:28;;;;;;;12.27;7.17;;;0.30;99.90;;;;;;4243580;27;20279;-59
2023/12/10 03:49:30;;;;;;;13.40;7.53;;;0.30;99.90;;;;;;4243495;27;20255;-59
2023/12/10 03:51:31;;;;;;;12.23;6.93;;;0.30;99.90;;;;;;4242213;27;20315;-60
2023/12/10 03:53:32;;;;;;;11.03;6.60;;;0.30;99.90;;;;;;4243926;27;20324;-59
2023/12/10 03:55:33;;;;;;;13.67;7.73;;;0.30;99.90;;;;;;4240816;27;20362;-58
2023/12/10 03:57:35;;;;;;;13.17;7.70;;;0.30;99.90;;;;;;4242702;27;20332;-60
2023/12/10 03:59:36;;;;;;;13.77;7.23;;;0.30;99.90;;;;;;4242683;27;20304;-59
2023/12/10 04:01:41;;;;;;;11.17;6.23;;;0.30;99.90;;;;;;4242418;27;20271;-59
2023/12/10 04:03:43;;;;;;;10.40;6.37;;;0.20;99.90;;;;;;4242999;27;20661;-59
2023/12/10 04:05:44;;;;;;;11.60;6.43;;;0.20;99.90;;;;;;4242742;27;20332;-57
2023/12/10 04:07:48;;;;;;;12.07;6.70;;;0.20;99.90;;;;;;4242906;27;20284;-58
2023/12/10 04:09:49;;;;;;;11.93;6.70;;;0.20;99.90;;;;;;4241610;27;20271;-60
2023/12/10 04:11:50;;;;;;;13.03;7.60;;;0.20;99.90;;;;;;4242539;27;22081;-59
2023/12/10 04:13:51;;;;;;;14.17;6.83;;;0.10;99.90;;;;;;4242472;27;21007;-60
2023/12/10 04:15:52;;;;;;;12.83;7.03;;;0.10;99.90;;;;;;4242797;27;20312;-59
2023/12/10 04:17:54;;;;;;;13.33;6.90;;;0.10;99.90;;;;;;4242416;27;20299;-58
2023/12/10 04:19:55;;;;;;;13.37;6.93;;;0.10;99.90;;;;;;4242753;27;20271;-59
2023/12/10 04:21:56;;;;;;;12.20;7.13;;;0.20;99.90;;;;;;4242230;27;20271;-58
2023/12/10 04:23:57;;;;;;;11.73;6.77;;;0.20;99.90;;;;;;4243070;27;20747;-59
2023/12/10 04:25:59;;;;;;;11.20;6.20;;;0.20;99.90;;;;;;4243060;27;20263;-60
2023/12/10 04:28:00;;;;;;;13.63;7.07;;;0.10;99.90;;;;;;4242180;27;20316;-59
2023/12/10 04:30:01;;;;;;;13.53;7.10;;;0.10;99.90;;;;;;4243168;27;20288;-60
2023/12/10 04:32:02;;;;;;;13.87;7.13;;;0.10;99.90;;;;;;4242015;27;20786;-60
2023/12/10 04:34:04;;;;;;;13.67;7.43;;;0.00;99.90;;;;;;4242582;27;21023;-60
2023/12/10 04:36:05;;;;;;;12.97;7.23;;;0.00;99.90;;;;;;4242719;27;20661;-58
2023/12/10 04:38:06;;;;;;;11.37;6.47;;;0.00;99.90;;;;;;4243352;27;20728;-60
2023/12/10 04:40:10;;;;;;;14.27;7.57;;;0.00;99.90;;;;;;4242961;27;20255;-60
2023/12/10 04:42:12;;;;;;;12.80;7.57;;;0.00;99.90;;;;;;4242335;27;20332;-60
2023/12/10 04:44:13;;;;;;;12.17;6.50;;;0.00;99.90;;;;;;4242401;27;20263;-60
2023/12/10 04:46:15;;;;;;;14.70;7.70;;;0.00;99.90;;;;;;4243394;27;21257;-60
2023/12/10 04:48:16;;;;;;;13.10;7.60;;;0.00;99.90;;;;;;4241838;27;20279;-59
2023/12/10 04:50:17;;;;;;;13.40;8.03;;;0.00;99.90;;;;;;4242886;27;20815;-60
2023/12/10 04:52:18;;;;;;;13.27;7.63;;;-0.10;99.90;;;;;;4242302;27;20713;-59
2023/12/10 04:54:19;;;;;;;13.73;7.77;;;-0.10;99.90;;;;;;4241456;27;20347;-60
2023/12/10 04:56:21;;;;;;;13.00;7.50;;;-0.10;99.90;;;;;;4243069;27;20271;-59
2023/12/10 04:58:22;;;;;;;11.67;7.03;;;0.00;99.90;;;;;;4242658;28;20614;-59
2023/12/10 05:00:23;;;;;;;12.37;6.80;;;0.00;99.90;;;;;;4241483;28;20320;-58
2023/12/10 05:02:25;;;;;;;12.57;6.30;;;-0.10;99.90;;;;;;4241959;28;20828;-60
2023/12/10 05:04:26;;;;;;;12.03;6.83;;;-0.10;99.90;;;;;;4242325;28;20279;-60
2023/12/10 05:06:28;;;;;;;12.07;6.60;;;-0.10;99.90;;;;;;4242932;28;20279;-60
2023/12/10 05:08:29;;;;;;;10.77;6.30;;;-0.10;99.90;;;;;;4241722;28;20953;-60
2023/12/10 05:10:30;;;;;;;12.10;7.10;;;-0.20;99.90;;;;;;4240747;28;20279;-57
2023/12/10 05:12:32;;;;;;;10.57;6.67;;;-0.20;99.90;;;;;;4242804;28;20352;-59
2023/12/10 05:14:33;;;;;;;12.00;6.13;;;-0.20;99.90;;;;;;4241822;28;20316;-60
2023/12/10 05:16:34;;;;;;;11.00;6.70;;;-0.20;99.90;;;;;;4242920;28;20297;-60
2023/12/10 05:18:35;;;;;;;11.93;6.80;;;-0.20;99.90;;;;;;4242703;28;20272;-58
2023/12/10 05:20:36;;;;;;;12.17;6.80;;;-0.20;99.90;;;;;;4241638;28;20279;-61
2023/12/10 05:22:37;;;;;;;12.63;7.30;;;-0.20;99.90;;;;;;4242561;28;20263;-59
2023/12/10 05:24:42;;;;;;;14.43;6.87;;;-0.30;99.90;;;;;;4241938;28;20275;-59
2023/12/10 05:26:43;;;;;;;15.17;7.43;;;-0.20;99.90;;;;;;4242291;28;20871;-56
2023/12/10 05:28:44;;;;;;;14.80;7.23;;;-0.20;99.90;;;;;;4242083;28;20275;-59
2023/12/10 05:30:45;;;;;;;11.53;7.00;;;-0.30;99.90;;;;;;4242372;28;20259;-59
2023/12/10 05:32:47;;;;;;;13.87;7.03;;;-0.30;99.90;;;;;;4224305;28;20852;-58
2023/12/10 05:34:48;;;;;;;13.67;6.77;;;-0.20;99.90;;;;;;4241983;28;20442;-58
2023/12/10 05:36:49;;;;;;;14.60;7.50;;;-0.30;99.90;;;;;;4239398;28;20279;-60
2023/12/10 05:38:50;;;;;;;12.83;7.10;;;-0.30;99.90;;;;;;4242029;28;20596;-59
2023/12/10 05:40:52;;;;;;;11.07;6.27;;;-0.30;99.90;;;;;;4241718;28;20355;-59
2023/12/10 05:42:53;;;;;;;11.77;6.30;;;-0.30;99.90;;;;;;4241924;28;20259;-56
2023/12/10 05:44:55;;;;;;;9.63;5.83;;;-0.30;99.90;;;;;;4242164;28;20259;-58
2023/12/10 05:46:56;;;;;;;10.23;6.57;;;-0.30;99.90;;;;;;4241423;28;20297;-59
2023/12/10 05:48:57;;;;;;;13.77;7.23;;;-0.30;99.90;;;;;;4242370;28;20312;-59
2023/12/10 05:50:58;;;;;;;12.73;6.87;;;-0.20;99.90;;;;;;4222859;28;20268;-58
2023/12/10 05:53:00;;;;;;;14.57;7.67;;;-0.30;99.90;;;;;;4242456;27;20359;-60
2023/12/10 05:55:02;;;;;;;12.37;6.90;;;-0.30;99.90;;;;;;4245212;27;20735;-58
2023/12/10 05:57:03;;;;;;;11.47;6.30;;;-0.30;99.90;;;;;;4244836;27;20275;-59
2023/12/10 05:59:04;;;;;;;11.43;6.83;;;-0.30;99.90;;;;;;4244933;27;20716;-58
2023/12/10 06:01:05;;;;;;;11.97;6.43;;;-0.30;99.90;;;;;;4244141;27;20305;-58
2023/12/10 06:03:07;;;;;;;12.67;6.57;;;-0.30;99.90;;;;;;4244838;27;20359;-58
2023/12/10 06:05:08;;;;;;;11.23;6.37;;;-0.20;99.90;;;;;;4245543;27;20272;-59
2023/12/10 06:07:09;;;;;;;12.90;7.37;;;-0.20;99.90;;;;;;4244805;27;20293;-60
2023/12/10 06:09:11;;;;;;;11.43;6.60;;;-0.20;99.90;;;;;;4244591;27;20320;-58
2023/12/10 06:11:12;;;;;;;12.23;6.73;;;-0.20;99.90;;;;;;4244613;27;20271;-56
2023/12/10 06:13:13;;;;;;;12.10;6.23;;;-0.20;99.90;;;;;;4245197;27;20647;-57
2023/12/10 06:15:15;;;;;;;11.47;7.10;;;-0.20;99.90;;;;;;4244895;27;20259;-57
2023/12/10 06:17:16;;;;;;;11.17;6.03;;;-0.20;99.90;;;;;;4244810;27;20332;-59
2023/12/10 06:19:17;;;;;;;13.33;7.23;;;-0.20;99.90;;;;;;4245080;27;20260;-60
2023/12/10 06:21:18;;;;;;;12.27;6.40;;;-0.20;99.90;;;;;;4245237;27;20263;-60
2023/12/10 06:23:20;;;;;;;14.10;7.30;;;-0.20;99.90;;;;;;4244490;27;20279;-61
2023/12/10 06:25:21;;;;;;;12.80;6.70;;;-0.20;99.90;;;;;;4245210;27;20316;-60
2023/12/10 06:27:22;;;;;;;12.73;6.83;;;-0.20;99.90;;;;;;4245227;27;20255;-60
2023/12/10 06:29:23;;;;;;;11.83;6.77;;;-0.10;99.90;;;;;;4244559;27;20264;-59
2023/12/10 06:31:24;;;;;;;10.87;6.23;;;0.00;99.90;;;;;;4244156;27;20776;-59
2023/12/10 06:33:26;;;;;;;11.27;6.27;;;0.00;99.90;;;;;;4244340;27;20712;-60
2023/12/10 06:35:27;;;;;;;12.97;7.47;;;0.00;99.90;;;;;;4244148;27;20584;-61
2023/12/10 06:37:28;;;;;;;13.27;7.33;;;0.00;99.90;;;;;;4244498;27;20271;-61
2023/12/10 06:39:29;;;;;;;12.97;7.30;;;0.00;99.90;;;;;;4244415;27;20610;-59
2023/12/10 06:41:30;;;;;;;13.27;6.80;;;-0.10;99.90;;;;;;4244636;27;20275;-60
2023/12/10 06:43:32;;;;;;;13.00;6.90;;;-0.10;99.90;;;;;;4244715;27;20267;-60
2023/12/10 06:45:33;;;;;;;15.67;6.90;;;-0.10;99.90;;;;;;4243607;27;20328;-60
2023/12/10 06:47:34;;;;;;;13.63;6.60;;;-0.10;99.90;;;;;;4244341;27;20279;-58
2023/12/10 06:49:35;;;;;;;14.97;6.47;;;0.00;99.90;;;;;;4244633;27;20256;-58
2023/12/10 06:51:37;;;;;;;11.40;6.67;;;0.00;99.90;;;;;;4243649;27;20276;-56
2023/12/10 06:53:40;;;;;;;12.93;6.77;;;0.00;99.90;;;;;;4244408;27;20715;-58
2023/12/10 06:55:41;;;;;;;15.47;7.03;;;0.00;99.90;;;;;;4243291;27;20320;-58
2023/12/10 06:57:42;;;;;;;14.93;8.13;;;0.00;99.90;;;;;;4243861;27;20259;-62
2023/12/10 06:59:43;;;;;;;13.67;7.23;;;0.10;99.90;;;;;;4243609;27;20268;-61
2023/12/10 07:01:44;;;;;;;12.33;6.20;;;0.10;99.90;;;;;;4244579;27;20350;-55
2023/12/10 07:03:46;;;;;;;14.63;7.33;;;0.10;99.90;;;;;;4244391;27;20279;-59
2023/12/10 07:05:47;;;;;;;13.90;6.83;;;0.10;99.90;;;;;;4243570;27;20276;-60
2023/12/10 07:07:48;;;;;;;13.70;7.13;;;0.10;99.90;;;;;;4243891;27;20585;-60
2023/12/10 07:09:49;;;;;;;15.83;7.17;;;0.10;99.90;;;;;;4243071;27;20340;-60
2023/12/10 07:11:51;;;;;;;12.70;7.07;;;0.10;99.90;;;;;;4244026;27;20260;-60
2023/12/10 07:13:53;;;;;;;14.57;7.60;;;0.00;99.90;;;;;;4244514;27;20256;-60
2023/12/10 07:15:54;;;;;;;12.47;6.60;;;0.00;99.90;;;;;;4243913;27;20320;-60
2023/12/10 07:17:55;;;;;;;13.30;7.27;;;-0.10;99.90;;;;;;4244816;27;20605;-60
2023/12/10 07:19:56;;;;;;;14.63;8.10;;;-0.10;99.90;;;;;;4244076;27;20331;-60
2023/12/10 07:21:58;;;;;;;12.30;7.43;;;-0.10;99.90;;;;;;4243804;27;20287;-58
2023/12/10 07:23:59;;;;;;;13.10;7.87;;;-0.10;99.90;;;;;;4243329;27;20719;-58
2023/12/10 07:26:00;;;;;;;15.47;7.93;;;-0.10;99.90;;;;;;4243311;27;20731;-59
2023/12/10 07:28:02;;;;;;;12.20;6.97;;;-0.10;99.90;;;;;;4242997;27;20343;-59
2023/12/10 07:30:04;;;;;;;14.73;7.97;;;-0.10;99.90;;;;;;4243057;27;20380;-60
2023/12/10 07:32:06;;;;;;;15.10;8.10;;;-0.10;99.90;;;;;;4243935;27;20320;-59
2023/12/10 07:34:08;;;;;;;15.47;8.03;;;-0.10;99.90;;;;;;4243685;27;20272;-60
2023/12/10 07:36:10;;;;;;;14.80;8.20;;;-0.10;99.90;;;;;;4243863;27;20379;-59
2023/12/10 07:38:11;;;;;;;16.07;7.43;;;-0.10;99.90;;;;;;4242893;27;20771;-62
2023/12/10 07:40:12;;;;;;;17.10;8.57;;;-0.10;99.90;;;;;;4243553;27;20340;-60
2023/12/10 07:42:13;;;;;;;16.30;8.03;;;-0.10;99.90;;;;;;4243518;27;20267;-61
2023/12/10 07:44:15;;;;;;;14.70;7.70;;;-0.10;99.90;;;;;;4242737;27;20615;-60
2023/12/10 07:46:16;;;;;;;16.17;7.50;;;-0.10;99.90;;;;;;4243522;27;20271;-59
2023/12/10 07:48:19;;;;;;;13.93;7.93;;;-0.10;99.90;;;;;;4243260;27;20363;-60
2023/12/10 07:50:20;;;;;;;13.80;7.90;;;-0.10;99.90;;;;;;4243511;27;20625;-59
2023/12/10 07:52:21;;;;;;;14.93;7.87;;;-0.10;99.90;;;;;;4243734;27;20359;-61
2023/12/10 07:54:22;;;;;;;19.20;8.17;;;-0.10;99.90;;;;;;4243109;27;20271;-60
2023/12/10 07:56:23;;;;;;;13.70;7.50;;;0.00;99.90;;;;;;4242979;27;20616;-60
2023/12/10 07:58:24;;;;;;;14.70;7.77;;;0.00;99.90;;;;;;4243015;27;20287;-60
2023/12/10 08:00:27;;;;;;;15.83;8.63;;;0.00;99.90;;;;;;4243808;27;20815;-61
2023/12/10 08:02:28;;;;;;;17.67;8.97;;;-0.10;99.90;;;;;;4243600;27;20374;-60
2023/12/10 08:04:29;;;;;;;17.67;9.40;;;0.00;99.90;;;;;;4243222;27;20267;-60
2023/12/10 08:06:31;;;;;;;17.53;8.70;;;0.00;99.90;;;;;;4243032;27;20343;-56
2023/12/10 08:08:32;;;;;;;16.00;8.97;;;0.00;99.90;;;;;;4243735;27;20275;-58
2023/12/10 08:10:33;;;;;;;16.97;8.63;;;-0.10;99.90;;;;;;4243096;27;20616;-60
2023/12/10 08:12:34;;;;;;;17.40;7.87;;;0.00;99.90;;;;;;4242794;27;20298;-57
2023/12/10 08:14:35;;;;;;;18.20;9.50;;;-0.10;99.90;;;;;;4241925;27;20347;-60
2023/12/10 08:16:36;;;;;;;15.87;8.57;;;0.00;99.90;;;;;;4242307;27;20263;-59
2023/12/10 08:18:37;;;;;;;18.07;9.00;;;0.00;99.90;;;;;;4243359;27;20359;-61
2023/12/10 08:20:39;;;;;;;15.30;8.30;;;0.00;99.90;;;;;;4242629;27;20626;-62
2023/12/10 08:22:40;;;;;;;18.70;8.67;;;0.00;99.90;;;;;;4243276;27;20263;-58
2023/12/10 08:24:41;;;;;;;16.87;9.27;;;-0.10;99.90;;;;;;4242082;27;20316;-59
2023/12/10 08:26:42;;;;;;;14.83;7.60;;;0.00;99.90;;;;;;4243218;27;20271;-60
2023/12/10 08:28:43;;;;;;;15.20;8.53;;;0.00;99.90;;;;;;4242240;27;20743;-63
2023/12/10 08:30:45;;;;;;;15.23;8.27;;;0.10;99.90;;;;;;4222953;28;20309;-59
2023/12/10 08:32:46;;;;;;;23.83;9.20;;;0.10;99.90;;;;;;4242029;27;20303;-59
2023/12/10 08:34:47;;;;;;;17.73;9.37;;;0.10;99.90;;;;;;4243090;27;20255;-60
2023/12/10 08:36:48;;;;;;;14.40;8.27;;;0.20;99.90;;;;;;4242935;27;20324;-59
2023/12/10 08:38:49;;;;;;;21.57;10.53;;;0.20;99.90;;;;;;4241852;27;20272;-60
2023/12/10 08:40:50;;;;;;;18.33;9.77;;;0.20;99.90;;;;;;4242901;27;20255;-62
2023/12/10 08:42:51;;;;;;;18.40;9.70;;;0.20;99.90;;;;;;4241385;27;20268;-61
2023/12/10 08:44:53;;;;;;;19.87;10.03;;;0.20;99.90;;;;;;4242523;27;20271;-61
2023/12/10 08:46:54;;;;;;;18.90;10.50;;;0.10;99.90;;;;;;4242520;27;20260;-61
2023/12/10 08:48:55;;;;;;;20.90;10.67;;;0.20;99.90;;;;;;4243105;27;20294;-60
2023/12/10 08:50:56;;;;;;;18.73;9.77;;;0.10;99.90;;;;;;4241416;27;20324;-61
2023/12/10 08:52:57;;;;;;;18.87;11.13;;;0.20;99.90;;;;;;4242570;27;20332;-61
2023/12/10 08:54:59;;;;;;;20.90;10.07;;;0.20;99.90;;;;;;4242555;27;20383;-61
2023/12/10 08:57:00;;;;;;;17.53;9.30;;;0.20;99.90;;;;;;4242102;27;20328;-61
2023/12/10 08:59:01;;;;;;;20.90;10.40;;;0.20;99.90;;;;;;4242869;28;20662;-61
2023/12/10 09:01:03;;;;;;;18.37;9.40;;;0.20;99.90;;;;;;4241397;28;20271;-59
2023/12/10 09:03:04;;;;;;;22.00;10.77;;;0.20;99.90;;;;;;4240529;28;20344;-61
2023/12/10 09:05:06;;;;;;;19.50;9.43;;;0.20;99.90;;;;;;4242879;28;20293;-61
2023/12/10 09:07:07;;;;;;;20.43;10.23;;;0.20;99.90;;;;;;4242198;28;20259;-61
2023/12/10 09:09:08;;;;;;;20.37;10.60;;;0.20;99.90;;;;;;4241618;28;20260;-60
2023/12/10 09:11:09;;;;;;;19.33;9.73;;;0.30;99.90;;;;;;4241983;28;20360;-60
2023/12/10 09:13:10;;;;;;;19.27;9.80;;;0.30;99.90;;;;;;4241885;28;20363;-63
2023/12/10 09:15:12;;;;;;;19.80;10.33;;;0.30;99.90;;;;;;4242724;28;20259;-64
2023/12/10 09:17:13;;;;;;;21.10;9.97;;;0.30;99.90;;;;;;4242745;28;20340;-62
2023/12/10 09:19:14;;;;;;;19.03;10.80;;;0.30;99.90;;;;;;4241913;28;20336;-62
2023/12/10 09:21:15;;;;;;;17.73;9.87;;;0.30;99.90;;;;;;4241161;28;20717;-61
2023/12/10 09:23:16;;;;;;;21.40;10.43;;;0.30;99.90;;;;;;4242279;28;20757;-59
2023/12/10 09:25:18;;;;;;;19.83;10.57;;;0.30;99.90;;;;;;4242181;28;20671;-58
2023/12/10 09:27:19;;;;;;;21.30;10.33;;;0.30;99.90;;;;;;4241233;28;20755;-59
2023/12/10 09:29:21;;;;;;;19.10;9.63;;;0.20;99.90;;;;;;4243772;27;20351;-59
2023/12/10 09:31:22;;;;;;;22.03;10.83;;;0.30;99.90;;;;;;4246005;27;20352;-60
2023/12/10 09:33:23;;;;;;;19.07;11.43;;;0.30;99.90;;;;;;4245636;27;20688;-58
2023/12/10 09:35:25;;;;;;;18.23;9.77;;;0.30;99.90;;;;;;4246302;27;20264;-58
2023/12/10 09:37:26;;;;;;;21.23;10.07;;;0.30;99.90;;;;;;4245115;27;20324;-59
2023/12/10 09:39:27;;;;;;;20.30;10.90;;;0.30;99.90;;;;;;4243519;27;20279;-59
2023/12/10 09:41:28;;;;;;;17.77;8.87;;;0.30;99.90;;;;;;4243786;27;20355;-59
2023/12/10 09:43:30;;;;;;;21.83;11.07;;;0.30;99.90;;;;;;4245368;27;20332;-59
2023/12/10 09:45:32;;;;;;;21.53;9.70;;;0.20;99.90;;;;;;4245521;27;20260;-60
2023/12/10 09:47:34;;;;;;;20.23;11.20;;;0.20;99.90;;;;;;4245450;27;20275;-61
2023/12/10 09:49:40;;;;;;;23.00;11.23;;;0.20;99.90;;;;;;4245397;27;20271;-59
2023/12/10 09:51:41;;;;;;;21.47;11.43;;;0.30;99.90;;;;;;4244625;27;20305;-60
2023/12/10 09:53:42;;;;;;;19.97;11.30;;;0.30;99.90;;;;;;4245450;27;20291;-59
2023/12/10 09:55:43;;;;;;;21.83;11.53;;;0.40;99.90;;;;;;4244573;27;20335;-60
2023/12/10 09:57:44;;;;;;;24.37;10.83;;;0.40;99.90;;;;;;4245124;27;20271;-59
2023/12/10 09:59:46;;;;;;;23.53;12.00;;;0.40;99.90;;;;;;4245081;27;20268;-59
2023/12/10 10:01:52;;;;;;;23.70;11.40;;;0.40;99.90;;;;;;4244444;27;20320;-59
2023/12/10 10:03:53;;;;;;;21.17;10.37;;;0.40;99.90;;;;;;4245224;27;20643;-61
2023/12/10 10:05:54;;;;;;;20.00;10.67;;;0.40;99.90;;;;;;4245311;27;20259;-61
2023/12/10 10:07:56;;;;;;;18.87;10.00;;;0.40;99.90;;;;;;4245234;27;20316;-59
2023/12/10 10:09:57;;;;;;;21.03;9.97;;;0.40;99.90;;;;;;4244844;27;20272;-60
2023/12/10 10:11:59;;;;;;;23.77;9.67;;;0.40;99.90;;;;;;4245174;27;20264;-61
2023/12/10 10:14:00;;;;;;;20.87;10.60;;;0.40;99.90;;;;;;4243884;27;20419;-60
2023/12/10 10:16:12;;;;;;;20.80;10.33;;;0.40;99.90;;;;;;4244928;27;20316;-56
2023/12/10 10:18:14;;;;;;;21.60;10.07;;;0.50;99.90;;;;;;4245232;27;20316;-60
2023/12/10 10:20:16;;;;;;;18.53;9.30;;;0.50;99.90;;;;;;4243899;27;20698;-61
2023/12/10 10:22:18;;;;;;;17.93;9.03;;;0.50;99.90;;;;;;4244098;27;20272;-62
2023/12/10 10:24:19;;;;;;;20.43;10.30;;;0.60;99.90;;;;;;4227836;28;20324;-60
2023/12/10 10:26:20;;;;;;;20.63;10.10;;;0.60;99.90;;;;;;4241094;27;20267;-63
2023/12/10 10:28:21;;;;;;;18.50;9.50;;;0.60;99.90;;;;;;4244559;27;20267;-59